createdAt,value
2023-01-11T00:03:00.207Z,15.10
2023-01-11T00:05:27.133Z,19.50
2023-01-11T00:07:53.950Z,18.60
2023-01-11T00:12:47.630Z,13.10
2023-01-11T00:15:14.522Z,15.50
2023-01-11T00:20:10.164Z,11.60
2023-01-11T00:22:37.247Z,20.60
2023-01-11T00:25:04.439Z,20.40
2023-01-11T00:27:31.202Z,21.30
2023-01-11T00:32:24.721Z,13.00
2023-01-11T00:37:18.023Z,14.80
2023-01-11T00:39:44.747Z,14.50
2023-01-11T00:42:30.732Z,23.10
2023-01-11T00:45:16.060Z,10.80
2023-01-11T00:47:57.942Z,20.00
2023-01-11T00:50:25.240Z,20.00
2023-01-11T00:52:51.959Z,18.70
2023-01-11T00:55:18.763Z,18.30
2023-01-11T01:00:12.702Z,10.60
2023-01-11T01:02:39.835Z,22.10
2023-01-11T01:05:06.985Z,16.50
2023-01-11T01:07:33.657Z,18.50
2023-01-11T01:10:00.372Z,18.10
2023-01-11T01:15:12.479Z,14.20
2023-01-11T01:17:39.222Z,19.80
2023-01-11T01:20:06.810Z,23.00
2023-01-11T01:22:33.940Z,10.40
2023-01-11T01:25:00.714Z,15.40
2023-01-11T01:29:54.058Z,17.30
2023-01-11T01:34:47.536Z,18.80
2023-01-11T01:37:16.037Z,12.50
2023-01-11T01:39:42.773Z,13.40
2023-01-11T01:45:30.983Z,9.10
2023-01-11T01:48:00.367Z,15.60
2023-01-11T01:50:37.301Z,16.00
2023-01-11T01:53:07.836Z,15.80
2023-01-11T01:55:36.242Z,13.20
2023-01-11T01:58:05.245Z,14.90
2023-01-11T02:00:31.961Z,16.70
2023-01-11T02:05:25.568Z,23.50
2023-01-11T02:10:22.147Z,11.90
2023-01-11T02:13:09.096Z,11.90
2023-01-11T02:15:35.779Z,10.00
2023-01-11T02:18:02.519Z,23.70
2023-01-11T02:20:43.946Z,16.70
2023-01-11T02:23:44.367Z,9.50
2023-01-11T02:26:48.393Z,14.90
2023-01-11T02:29:28.439Z,21.90
2023-01-11T02:32:30.729Z,22.90
2023-01-11T02:35:31.952Z,14.30
2023-01-11T02:38:04.152Z,22.20
2023-01-11T02:40:30.887Z,16.40
2023-01-11T02:46:31.544Z,18.00
2023-01-11T02:49:10.193Z,15.30
2023-01-11T02:51:47.392Z,20.20
2023-01-11T02:54:14.163Z,10.50
2023-01-11T02:56:42.040Z,18.30
2023-01-11T02:59:13.656Z,7.50
2023-01-11T03:01:47.578Z,12.40
2023-01-11T03:04:50.172Z,10.50
2023-01-11T03:07:25.702Z,27.70
2023-01-11T03:09:56.652Z,8.30
2023-01-11T03:12:45.690Z,8.70
2023-01-11T03:15:23.028Z,12.50
2023-01-11T03:20:26.045Z,11.20
2023-01-11T03:23:09.223Z,15.70
2023-01-11T03:26:06.540Z,11.70
2023-01-11T03:29:10.870Z,14.90
2023-01-11T03:31:39.954Z,17.70
2023-01-11T03:34:10.747Z,12.30
2023-01-11T03:36:40.572Z,15.70
2023-01-11T03:39:22.996Z,11.60
2023-01-11T03:41:50.129Z,15.00
2023-01-11T03:44:17.065Z,16.50
2023-01-11T03:49:13.930Z,11.10
2023-01-11T03:51:44.480Z,12.90
2023-01-11T03:54:13.828Z,9.70
2023-01-11T03:57:07.619Z,7.60
2023-01-11T03:59:34.352Z,9.70
2023-01-11T04:04:27.898Z,12.90
2023-01-11T04:06:54.670Z,11.10
2023-01-11T04:11:48.425Z,15.90
2023-01-11T04:14:15.143Z,11.90
2023-01-11T04:19:08.469Z,11.70
2023-01-11T04:21:35.202Z,9.30
2023-01-11T04:24:01.960Z,12.90
2023-01-11T04:28:55.281Z,10.20
2023-01-11T04:33:48.670Z,9.10
2023-01-11T04:36:15.469Z,11.60
2023-01-11T04:41:27.704Z,13.20
2023-01-11T04:43:56.299Z,14.30
2023-01-11T04:46:23.792Z,15.30
2023-01-11T04:48:50.643Z,16.90
2023-01-11T04:53:44.081Z,13.70
2023-01-11T04:58:38.987Z,11.90
2023-01-11T05:03:36.709Z,14.10
2023-01-11T05:06:03.551Z,17.00
2023-01-11T05:08:30.352Z,17.20
2023-01-11T05:13:41.559Z,13.10
2023-01-11T05:16:19.294Z,10.90
2023-01-11T05:18:47.857Z,18.30
2023-01-11T05:21:16.369Z,14.20
2023-01-11T05:23:43.271Z,12.00
2023-01-11T05:26:50.400Z,11.00
2023-01-11T05:29:17.151Z,19.10
2023-01-11T05:34:12.453Z,12.00
2023-01-11T05:36:39.251Z,14.10
2023-01-11T05:41:33.839Z,10.60
2023-01-11T05:44:19.341Z,16.70
2023-01-11T05:46:46.112Z,20.60
2023-01-11T05:51:40.402Z,14.00
2023-01-11T05:54:09.324Z,16.30
2023-01-11T05:56:36.024Z,13.80
2023-01-11T06:01:31.310Z,8.20
2023-01-11T06:03:58.049Z,7.50
2023-01-11T06:08:51.448Z,17.80
2023-01-11T06:13:44.868Z,12.20
2023-01-11T06:18:46.578Z,12.50
2023-01-11T06:21:13.627Z,12.00
2023-01-11T06:23:42.413Z,12.50
2023-01-11T06:26:14.870Z,12.90
2023-01-11T06:28:41.682Z,12.20
2023-01-11T06:33:35.795Z,7.30
2023-01-11T06:36:07.219Z,11.10
2023-01-11T06:38:34.209Z,11.30
2023-01-11T06:41:01.814Z,11.30
2023-01-11T06:43:29.073Z,9.80
2023-01-11T06:45:56.031Z,22.80
2023-01-11T06:48:23.166Z,11.20
2023-01-11T06:50:50.637Z,9.30
2023-01-11T06:53:17.373Z,24.50
2023-01-11T06:58:10.902Z,10.70
2023-01-11T07:00:38.210Z,14.00
2023-01-11T07:03:05.608Z,10.20
2023-01-11T07:05:32.948Z,13.90
2023-01-11T07:07:59.760Z,14.50
2023-01-11T07:12:53.583Z,18.30
2023-01-11T07:15:20.407Z,15.60
2023-01-11T07:17:48.912Z,15.10
2023-01-11T07:20:15.835Z,12.50
2023-01-11T07:22:42.540Z,15.20
2023-01-11T07:27:35.960Z,14.50
2023-01-11T07:30:03.141Z,15.60
2023-01-11T07:32:29.854Z,15.10
2023-01-11T07:37:29.128Z,18.20
2023-01-11T07:39:56.188Z,8.60
2023-01-11T07:45:08.734Z,11.40
2023-01-11T07:47:35.482Z,19.00
2023-01-11T07:52:28.833Z,20.00
2023-01-11T07:57:37.593Z,12.20
2023-01-11T08:00:04.652Z,11.90
2023-01-11T08:02:38.590Z,22.80
2023-01-11T08:05:05.708Z,16.70
2023-01-11T08:07:32.436Z,20.50
2023-01-11T08:12:44.384Z,15.90
2023-01-11T08:15:14.128Z,15.50
2023-01-11T08:17:40.870Z,12.30
2023-01-11T08:22:34.433Z,16.20
2023-01-11T08:27:27.857Z,16.10
2023-01-11T08:32:21.200Z,20.50
2023-01-11T08:37:14.972Z,15.90
2023-01-11T08:39:41.802Z,16.90
2023-01-11T08:44:35.300Z,13.20
2023-01-11T08:47:02.966Z,11.80
2023-01-11T08:49:30.635Z,12.00
2023-01-11T08:51:57.425Z,16.50
2023-01-11T08:56:51.799Z,12.90
2023-01-11T09:01:47.393Z,16.80
2023-01-11T09:04:24.091Z,13.40
2023-01-11T09:06:52.566Z,13.30
2023-01-11T09:09:19.283Z,20.10
2023-01-11T09:14:22.865Z,17.60
2023-01-11T09:16:49.531Z,13.40
2023-01-11T09:19:16.261Z,28.70
2023-01-11T09:24:10.755Z,25.90
2023-01-11T09:29:05.445Z,15.80
2023-01-11T09:31:32.269Z,20.10
2023-01-11T09:36:27.815Z,12.00
2023-01-11T09:38:57.392Z,20.10
2023-01-11T09:41:46.570Z,22.50
2023-01-11T09:44:16.615Z,13.30
2023-01-11T09:46:46.356Z,18.00
2023-01-11T09:49:16.621Z,11.60
2023-01-11T09:51:43.443Z,16.60
2023-01-11T09:56:46.360Z,24.80
2023-01-11T09:59:24.352Z,13.50
2023-01-11T10:02:31.071Z,21.40
2023-01-11T10:05:23.538Z,29.40
2023-01-11T10:18:26.562Z,17.90
2023-01-11T10:18:32.894Z,21.50
2023-01-11T10:20:11.371Z,18.60
2023-01-11T10:22:42.569Z,24.90
2023-01-11T10:25:18.877Z,16.60
2023-01-11T10:27:53.921Z,16.50
2023-01-11T10:30:35.884Z,17.90
2023-01-11T10:34:03.319Z,18.10
2023-01-11T10:36:54.698Z,20.50
2023-01-11T10:39:50.218Z,16.90
2023-01-11T10:42:25.093Z,16.40
2023-01-11T10:45:00.961Z,26.50
2023-01-11T10:48:02.523Z,15.80
2023-01-11T10:50:54.840Z,18.30
2023-01-11T10:53:40.432Z,15.80
2023-01-11T10:56:42.887Z,13.30
2023-01-11T10:59:42.932Z,22.60
2023-01-11T11:02:28.434Z,13.10
2023-01-11T11:05:35.719Z,19.70
2023-01-11T11:08:13.675Z,15.20
2023-01-11T11:11:03.396Z,18.20
2023-01-11T11:13:49.169Z,18.50
2023-01-11T11:16:21.994Z,19.60
2023-01-11T11:18:49.719Z,14.60
2023-01-11T11:21:28.550Z,12.10
2023-01-11T11:24:27.670Z,16.60
2023-01-11T11:27:02.828Z,15.50
2023-01-11T11:29:30.810Z,16.40
2023-01-11T11:31:59.194Z,24.60
2023-01-11T11:34:27.470Z,21.60
2023-01-11T11:36:54.332Z,16.20
2023-01-11T11:44:27.196Z,10.00
2023-01-11T11:47:01.315Z,18.10
2023-01-11T11:49:29.541Z,18.90
2023-01-11T11:51:56.291Z,33.50
2023-01-11T11:57:13.380Z,19.70
2023-01-11T11:59:43.636Z,23.00
2023-01-11T12:02:21.307Z,15.60
2023-01-11T12:04:48.385Z,19.20
2023-01-11T12:07:22.641Z,15.40
2023-01-11T12:10:15.419Z,14.90
2023-01-11T12:12:59.417Z,19.50
2023-01-11T12:15:33.197Z,31.80
2023-01-11T12:18:33.510Z,20.80
2023-01-11T12:21:22.671Z,26.10
2023-01-11T12:24:12.625Z,19.80
2023-01-11T12:27:10.247Z,17.20
2023-01-11T12:29:54.892Z,60.50
2023-01-11T12:32:25.118Z,40.10
2023-01-11T12:35:16.633Z,34.30
2023-01-11T12:38:24.836Z,45.50
2023-01-11T12:41:00.013Z,27.80
2023-01-11T12:43:38.794Z,30.20
2023-01-11T12:46:25.166Z,41.00
2023-01-11T12:49:15.097Z,49.50
2023-01-11T12:52:29.572Z,23.00
2023-01-11T12:55:24.697Z,23.20
2023-01-11T12:58:14.246Z,25.90
2023-01-11T13:01:08.848Z,27.00
2023-01-11T13:03:56.985Z,31.10
2023-01-11T13:06:36.337Z,37.50
2023-01-11T13:09:40.556Z,63.70
2023-01-11T13:12:23.283Z,37.80
2023-01-11T13:15:08.970Z,32.50
2023-01-11T13:17:44.876Z,42.30
2023-01-11T13:20:26.687Z,25.30
2023-01-11T13:23:10.378Z,29.40
2023-01-11T13:25:39.438Z,51.10
2023-01-11T13:28:25.264Z,43.70
2023-01-11T13:30:53.402Z,48.70
2023-01-11T13:33:24.112Z,70.20
2023-01-11T13:35:54.873Z,39.30
2023-01-11T13:38:34.833Z,59.90
2023-01-11T13:41:12.139Z,52.50
2023-01-11T13:43:40.899Z,66.20
2023-01-11T13:46:16.056Z,38.90
2023-01-11T13:48:51.604Z,60.40
2023-01-11T13:51:18.312Z,54.20
2023-01-11T13:56:25.604Z,52.00
2023-01-11T13:59:06.065Z,52.30
2023-01-11T14:02:14.926Z,44.70
2023-01-11T14:04:47.151Z,37.90
2023-01-11T14:07:21.535Z,41.10
2023-01-11T14:10:37.548Z,37.50
2023-01-11T14:13:07.804Z,56.80
2023-01-11T14:16:09.732Z,64.00
2023-01-11T14:18:41.842Z,26.00
2023-01-11T14:21:26.060Z,59.70
2023-01-11T14:23:53.574Z,33.40
2023-01-11T14:26:38.984Z,54.20
2023-01-11T14:29:25.605Z,38.20
2023-01-11T14:32:01.893Z,28.80
2023-01-11T14:34:48.200Z,21.30
2023-01-11T14:37:23.527Z,30.30
2023-01-11T14:40:21.089Z,53.20
2023-01-11T14:43:23.420Z,99.50
2023-01-11T14:46:11.928Z,134.10
2023-01-11T14:49:03.517Z,129.50
2023-01-11T14:51:48.794Z,105.60
2023-01-11T14:54:21.429Z,102.30
2023-01-11T14:56:51.174Z,82.70
2023-01-11T14:59:26.311Z,79.10
2023-01-11T15:02:14.352Z,81.10
2023-01-11T15:04:54.761Z,78.60
2023-01-11T15:07:22.695Z,68.50
2023-01-11T15:09:50.751Z,47.70
2023-01-11T15:12:21.875Z,100.60
2023-01-11T15:15:02.212Z,71.40
2023-01-11T15:17:47.366Z,68.30
2023-01-11T15:20:16.223Z,71.60
2023-01-11T15:22:43.096Z,79.40
2023-01-11T15:27:49.880Z,43.90
2023-01-11T15:30:29.265Z,39.00
2023-01-11T15:33:17.757Z,87.60
2023-01-11T15:35:56.698Z,79.40
2023-01-11T15:38:34.069Z,80.90
2023-01-11T15:44:04.337Z,260.50
2023-01-11T15:46:54.917Z,186.50
2023-01-11T15:49:30.690Z,85.20
2023-01-11T15:52:24.779Z,55.30
2023-01-11T15:55:15.646Z,64.60
2023-01-11T15:57:53.075Z,60.80
2023-01-11T16:01:01.397Z,83.20
2023-01-11T16:03:54.257Z,84.30
2023-01-11T16:06:35.764Z,88.00
2023-01-11T16:09:36.189Z,49.00
2023-01-11T16:12:37.091Z,60.10
2023-01-11T16:15:16.603Z,73.30
2023-01-11T16:17:44.017Z,74.30
2023-01-11T16:20:19.830Z,43.30
2023-01-11T16:22:58.300Z,48.80
2023-01-11T16:25:28.001Z,56.30
2023-01-11T16:27:56.028Z,63.40
2023-01-11T16:30:22.977Z,59.20
2023-01-11T16:32:49.659Z,96.00
2023-01-11T16:35:21.552Z,71.80
2023-01-11T16:37:52.947Z,56.60
2023-01-11T16:40:21.836Z,123.00
2023-01-11T22:51:58.075Z,19.40
2023-01-11T22:56:51.421Z,15.20
2023-01-11T22:59:17.907Z,17.40
2023-01-11T23:01:44.662Z,16.00
2023-01-11T23:04:12.543Z,12.70
2023-01-11T23:06:39.950Z,15.00
2023-01-11T23:09:08.768Z,17.90
2023-01-11T23:11:55.170Z,12.10
2023-01-11T23:14:22.016Z,11.80
2023-01-11T23:16:49.259Z,11.90
2023-01-11T23:19:17.183Z,15.90
2023-01-11T23:21:44.269Z,13.10
2023-01-11T23:24:11.354Z,15.20
2023-01-11T23:26:38.319Z,18.40
2023-01-11T23:29:05.452Z,16.10
2023-01-11T23:31:32.057Z,13.50
2023-01-11T23:33:59.568Z,10.60
2023-01-11T23:36:28.071Z,16.10
2023-01-11T23:38:54.639Z,15.10
2023-01-11T23:41:43.846Z,14.00
2023-01-11T23:44:11.842Z,13.90
2023-01-11T23:46:57.059Z,15.20
2023-01-11T23:49:26.235Z,18.00
2023-01-11T23:51:53.253Z,10.20
2023-01-11T23:54:19.816Z,17.60
2023-01-11T23:56:48.811Z,15.00
2023-01-11T23:59:15.390Z,13.30
